createdAt,value
2018-07-13T00:02:23.596Z,15.63
2018-07-13T00:04:51.790Z,7.50
2018-07-13T00:07:19.779Z,12.77
2018-07-13T00:09:47.962Z,14.93
2018-07-13T00:12:16.136Z,12.30
2018-07-13T00:15:20.996Z,11.67
2018-07-13T00:17:49.164Z,13.80
2018-07-13T00:20:17.331Z,6.27
2018-07-13T00:22:46.372Z,6.70
2018-07-13T00:25:14.552Z,19.83
2018-07-13T00:27:42.719Z,15.30
2018-07-13T00:30:10.900Z,10.27
2018-07-13T00:32:39.063Z,11.77
2018-07-13T00:35:07.227Z,9.40
2018-07-13T00:37:35.414Z,9.53
2018-07-13T00:40:03.892Z,17.50
2018-07-13T00:42:32.073Z,8.67
2018-07-13T00:45:00.255Z,7.67
2018-07-13T00:47:28.231Z,14.07
2018-07-13T00:49:56.166Z,9.77
2018-07-13T00:52:24.345Z,13.30
2018-07-13T00:54:52.519Z,10.60
2018-07-13T00:57:20.709Z,11.07
2018-07-13T00:59:48.628Z,23.50
2018-07-13T01:02:16.810Z,13.80
2018-07-13T01:04:44.988Z,13.63
2018-07-13T01:07:13.155Z,15.33
2018-07-13T01:09:41.321Z,15.47
2018-07-13T01:12:09.485Z,11.20
2018-07-13T01:14:37.655Z,9.33
2018-07-13T01:17:05.835Z,19.70
2018-07-13T01:19:34.016Z,13.83
2018-07-13T01:22:02.232Z,10.67
2018-07-13T01:24:30.407Z,12.17
2018-07-13T01:26:58.355Z,12.23
2018-07-13T01:29:26.779Z,17.00
2018-07-13T01:31:54.976Z,11.60
2018-07-13T01:34:23.141Z,9.73
2018-07-13T01:36:51.632Z,8.40
2018-07-13T01:39:19.795Z,13.50
2018-07-13T01:41:47.972Z,13.67
2018-07-13T01:44:16.157Z,10.73
2018-07-13T01:46:44.387Z,12.67
2018-07-13T01:49:12.926Z,14.23
2018-07-13T01:51:41.771Z,12.20
2018-07-13T01:54:09.948Z,9.13
2018-07-13T01:56:38.112Z,12.97
2018-07-13T01:59:06.312Z,12.47
2018-07-13T02:01:34.516Z,13.27
2018-07-13T02:04:02.691Z,10.63
2018-07-13T02:06:30.864Z,18.50
2018-07-13T02:08:59.105Z,21.70
2018-07-13T02:11:27.279Z,23.57
2018-07-13T02:13:55.480Z,16.30
2018-07-13T02:16:23.651Z,16.13
2018-07-13T02:18:51.842Z,13.90
2018-07-13T02:21:20.004Z,17.43
2018-07-13T02:23:48.203Z,12.60
2018-07-13T02:26:16.404Z,14.37
2018-07-13T02:28:44.559Z,12.53
2018-07-13T02:31:12.483Z,14.00
2018-07-13T02:33:40.688Z,12.73
2018-07-13T02:36:08.849Z,11.33
2018-07-13T02:38:37.023Z,14.83
2018-07-13T02:41:05.201Z,14.13
2018-07-13T02:43:33.631Z,18.00
2018-07-13T02:46:01.804Z,11.00
2018-07-13T02:48:29.963Z,14.43
2018-07-13T02:50:58.150Z,10.67
2018-07-13T02:53:26.362Z,15.57
2018-07-13T02:55:54.616Z,18.90
2018-07-13T02:58:22.881Z,10.97
2018-07-13T03:00:51.064Z,10.07
2018-07-13T03:03:19.282Z,12.97
2018-07-13T03:05:47.567Z,16.60
2018-07-13T03:08:15.529Z,13.10
2018-07-13T03:10:43.518Z,16.47
2018-07-13T03:13:11.706Z,17.83
2018-07-13T03:15:39.896Z,9.70
2018-07-13T03:18:08.073Z,17.37
2018-07-13T03:20:36.286Z,12.90
2018-07-13T03:23:04.492Z,14.30
2018-07-13T03:25:32.668Z,19.20
2018-07-13T03:28:00.839Z,13.37
2018-07-13T03:30:29.022Z,12.93
2018-07-13T03:32:57.175Z,15.60
2018-07-13T03:35:25.369Z,24.23
2018-07-13T03:37:53.531Z,20.33
2018-07-13T03:40:21.704Z,10.07
2018-07-13T03:42:49.884Z,14.40
2018-07-13T03:45:18.055Z,20.47
2018-07-13T03:47:46.248Z,13.43
2018-07-13T03:50:14.789Z,18.03
2018-07-13T03:52:42.730Z,14.40
2018-07-13T03:55:10.928Z,10.30
2018-07-13T03:57:39.104Z,16.40
2018-07-13T04:00:07.058Z,19.20
2018-07-13T04:02:35.253Z,12.73
2018-07-13T04:05:03.192Z,13.13
2018-07-13T04:07:31.431Z,13.13
2018-07-13T04:09:59.612Z,18.80
2018-07-13T04:12:27.774Z,15.93
2018-07-13T04:14:55.976Z,14.97
2018-07-13T04:17:24.148Z,17.47
2018-07-13T04:19:52.344Z,11.73
2018-07-13T04:22:20.515Z,10.70
2018-07-13T04:24:48.716Z,15.80
2018-07-13T04:27:16.678Z,16.37
2018-07-13T04:29:44.896Z,9.47
2018-07-13T04:32:13.191Z,15.53
2018-07-13T04:34:41.509Z,10.47
2018-07-13T04:37:09.460Z,9.60
2018-07-13T04:39:37.628Z,7.70
2018-07-13T04:42:05.984Z,13.23
2018-07-13T04:44:34.184Z,11.83
2018-07-13T04:47:02.372Z,16.10
2018-07-13T04:49:30.344Z,16.07
2018-07-13T04:51:58.298Z,14.80
2018-07-13T04:54:26.496Z,18.80
2018-07-13T04:56:54.668Z,13.23
2018-07-13T04:59:22.848Z,14.13
2018-07-13T05:01:51.080Z,12.53
2018-07-13T05:04:19.528Z,18.17
2018-07-13T05:06:48.040Z,17.80
2018-07-13T05:09:16.273Z,16.77
2018-07-13T05:11:44.440Z,13.47
2018-07-13T05:14:12.634Z,15.40
2018-07-13T05:16:40.799Z,15.43
2018-07-13T05:19:08.973Z,17.80
2018-07-13T05:21:37.760Z,23.67
2018-07-13T05:24:05.985Z,20.43
2018-07-13T05:26:34.175Z,12.63
2018-07-13T05:29:02.103Z,14.37
2018-07-13T05:31:30.276Z,11.20
2018-07-13T05:33:58.464Z,12.57
2018-07-13T05:36:26.649Z,20.83
2018-07-13T05:38:54.856Z,12.17
2018-07-13T05:41:23.029Z,13.70
2018-07-13T05:43:51.355Z,33.27
2018-07-13T05:46:19.561Z,19.27
2018-07-13T05:48:47.522Z,11.47
2018-07-13T05:51:15.533Z,13.70
2018-07-13T05:53:43.719Z,15.00
2018-07-13T05:56:11.940Z,18.73
2018-07-13T05:58:39.887Z,13.03
2018-07-13T06:01:08.223Z,13.47
2018-07-13T06:03:36.437Z,19.57
2018-07-13T06:06:04.646Z,13.50
2018-07-13T06:08:32.595Z,13.20
2018-07-13T06:11:00.843Z,14.13
2018-07-13T06:13:29.019Z,11.20
2018-07-13T06:15:57.179Z,10.20
2018-07-13T06:18:25.464Z,14.77
2018-07-13T06:20:53.639Z,13.70
2018-07-13T06:23:21.857Z,11.27
2018-07-13T06:25:49.783Z,20.13
2018-07-13T06:28:17.969Z,15.30
2018-07-13T06:30:46.153Z,9.53
2018-07-13T06:33:14.207Z,7.67
2018-07-13T06:35:42.393Z,11.00
2018-07-13T06:38:10.602Z,12.47
2018-07-13T06:40:38.796Z,12.33
2018-07-13T06:43:07.403Z,13.13
2018-07-13T06:45:37.673Z,11.30
2018-07-13T06:48:05.998Z,7.87
2018-07-13T06:50:34.394Z,10.13
2018-07-13T06:53:02.543Z,13.80
2018-07-13T06:55:30.716Z,9.77
2018-07-13T06:58:10.285Z,15.33
2018-07-13T07:00:56.439Z,13.20
2018-07-13T07:03:25.509Z,11.90
2018-07-13T07:05:55.196Z,16.80
2018-07-13T07:08:23.149Z,11.03
2018-07-13T07:10:51.336Z,15.50
2018-07-13T07:13:22.671Z,14.23
2018-07-13T07:15:50.856Z,13.00
2018-07-13T07:18:19.064Z,19.93
2018-07-13T07:20:47.249Z,10.50
2018-07-13T07:23:15.547Z,10.87
2018-07-13T07:25:43.774Z,11.27
2018-07-13T07:28:11.711Z,12.30
2018-07-13T07:30:39.986Z,17.60
2018-07-13T07:33:08.297Z,13.50
2018-07-13T07:35:36.481Z,18.17
2018-07-13T07:38:04.676Z,15.83
2018-07-13T07:40:32.885Z,7.43
2018-07-13T07:43:01.072Z,14.27
2018-07-13T07:45:29.256Z,15.00
2018-07-13T07:47:57.192Z,20.77
2018-07-13T07:50:25.568Z,11.43
2018-07-13T07:52:53.748Z,14.13
2018-07-13T07:55:21.952Z,10.90
2018-07-13T07:57:49.907Z,14.67
2018-07-13T08:00:17.881Z,13.67
2018-07-13T08:02:45.831Z,6.80
2018-07-13T08:05:14.036Z,14.20
2018-07-13T08:07:42.001Z,13.30
2018-07-13T08:10:10.178Z,12.60
2018-07-13T08:12:38.116Z,14.83
2018-07-13T08:15:06.288Z,11.33
2018-07-13T08:17:34.467Z,8.60
2018-07-13T08:20:02.695Z,12.77
2018-07-13T08:22:37.722Z,18.63
2018-07-13T08:25:06.880Z,9.47
2018-07-13T08:27:36.450Z,8.30
2018-07-13T08:30:06.108Z,12.10
2018-07-13T08:32:34.062Z,13.27
2018-07-13T08:35:01.991Z,12.67
2018-07-13T08:37:30.186Z,14.27
2018-07-13T08:39:58.364Z,9.20
2018-07-13T08:42:26.676Z,15.43
2018-07-13T08:44:54.896Z,10.70
2018-07-13T08:47:23.072Z,13.53
2018-07-13T08:49:51.396Z,9.00
2018-07-13T08:52:19.605Z,21.03
2018-07-13T08:54:47.825Z,9.37
2018-07-13T08:57:15.996Z,8.87
2018-07-13T08:59:44.014Z,11.57
2018-07-13T09:02:11.946Z,9.43
2018-07-13T09:04:39.903Z,12.03
2018-07-13T09:07:08.091Z,9.60
2018-07-13T09:09:36.029Z,10.77
2018-07-13T09:12:04.256Z,14.40
2018-07-13T09:14:32.459Z,11.80
2018-07-13T09:17:00.643Z,11.33
2018-07-13T09:19:28.815Z,8.20
2018-07-13T09:21:56.996Z,9.90
2018-07-13T09:24:25.271Z,8.30
2018-07-13T09:26:53.436Z,8.47
2018-07-13T09:29:21.620Z,12.83
2018-07-13T09:31:49.805Z,10.80
2018-07-13T09:34:18.106Z,11.93
2018-07-13T09:36:46.215Z,8.30
2018-07-13T09:39:14.409Z,11.50
2018-07-13T09:41:42.612Z,13.53
2018-07-13T09:44:10.579Z,12.17
2018-07-13T09:46:38.602Z,9.70
2018-07-13T09:49:06.727Z,5.37
2018-07-13T09:51:34.671Z,7.77
2018-07-13T09:54:03.003Z,8.80
2018-07-13T09:56:31.088Z,7.47
2018-07-13T09:58:59.286Z,6.53
2018-07-13T10:01:27.501Z,10.33
2018-07-13T10:03:55.447Z,11.73
2018-07-13T10:06:23.692Z,9.00
2018-07-13T10:08:51.902Z,6.30
2018-07-13T10:11:19.839Z,7.53
2018-07-13T10:13:48.028Z,9.20
2018-07-13T10:16:16.213Z,10.00
2018-07-13T10:18:44.442Z,8.20
2018-07-13T10:21:12.629Z,6.03
2018-07-13T10:23:41.532Z,8.67
2018-07-13T10:26:17.861Z,6.53
2018-07-13T10:28:46.068Z,12.30
2018-07-13T10:31:14.583Z,10.73
2018-07-13T10:33:42.532Z,8.40
2018-07-13T10:36:13.387Z,9.13
2018-07-13T10:38:41.322Z,11.10
2018-07-13T10:41:09.568Z,9.97
2018-07-13T10:43:37.747Z,5.83
2018-07-13T10:46:05.987Z,12.03
2018-07-13T10:48:34.192Z,9.90
2018-07-13T10:51:02.377Z,7.40
2018-07-13T10:53:30.572Z,6.60
2018-07-13T10:55:58.779Z,14.10
2018-07-13T10:58:26.887Z,8.67
2018-07-13T11:00:55.072Z,9.77
2018-07-13T11:03:23.264Z,11.13
2018-07-13T11:05:51.440Z,16.27
2018-07-13T11:08:19.624Z,9.63
2018-07-13T11:10:47.796Z,7.50
2018-07-13T11:13:15.992Z,9.70
2018-07-13T11:15:43.958Z,11.93
2018-07-13T11:18:11.898Z,9.67
2018-07-13T11:20:40.149Z,10.83
2018-07-13T11:23:08.352Z,10.57
2018-07-13T11:25:36.528Z,10.37
2018-07-13T11:28:04.940Z,10.23
2018-07-13T11:30:32.888Z,11.33
2018-07-13T11:33:01.068Z,15.43
2018-07-13T11:35:29.012Z,9.47
2018-07-13T11:37:57.205Z,11.70
2018-07-13T11:40:25.371Z,6.93
2018-07-13T11:42:53.580Z,6.67
2018-07-13T11:45:21.760Z,13.10
2018-07-13T11:47:49.993Z,14.70
2018-07-13T11:50:18.174Z,10.33
2018-07-13T11:52:46.347Z,6.83
2018-07-13T11:55:14.528Z,9.90
2018-07-13T11:57:42.513Z,11.80
2018-07-13T12:00:10.687Z,12.50
2018-07-13T12:02:38.904Z,6.20
2018-07-13T12:05:07.111Z,9.03
2018-07-13T12:07:35.351Z,13.93
2018-07-13T12:10:03.533Z,6.77
2018-07-13T12:12:31.738Z,6.93
2018-07-13T12:14:59.907Z,9.40
2018-07-13T12:17:28.179Z,9.60
2018-07-13T12:19:56.352Z,13.17
2018-07-13T12:22:24.540Z,9.80
2018-07-13T12:24:52.510Z,10.20
2018-07-13T12:27:20.472Z,11.60
2018-07-13T12:29:48.432Z,7.27
2018-07-13T12:32:16.668Z,11.95
2018-07-13T12:34:44.858Z,12.73
2018-07-13T12:37:13.045Z,7.60
2018-07-13T12:39:41.252Z,14.93
2018-07-13T12:42:09.435Z,10.93
2018-07-13T12:44:37.627Z,9.73
2018-07-13T12:47:05.970Z,7.23
2018-07-13T12:49:33.888Z,8.37
2018-07-13T12:52:02.083Z,9.70
2018-07-13T12:54:30.308Z,10.30
2018-07-13T12:56:58.246Z,8.87
2018-07-13T12:59:26.212Z,14.63
2018-07-13T13:01:54.457Z,8.43
2018-07-13T13:04:22.786Z,11.13
2018-07-13T13:06:50.716Z,6.30
2018-07-13T13:09:18.916Z,10.23
2018-07-13T13:11:46.847Z,10.93
2018-07-13T13:14:15.085Z,7.43
2018-07-13T13:16:43.248Z,5.17
2018-07-13T13:19:11.412Z,6.50
2018-07-13T13:21:39.429Z,7.80
2018-07-13T13:24:07.580Z,7.63
2018-07-13T13:26:35.787Z,7.70
2018-07-13T13:29:05.770Z,5.87
2018-07-13T13:31:33.942Z,18.27
2018-07-13T13:34:02.136Z,6.87
2018-07-13T13:36:30.328Z,10.03
2018-07-13T13:38:58.538Z,9.67
2018-07-13T13:41:26.475Z,6.17
2018-07-13T13:43:54.663Z,5.53
2018-07-13T13:46:22.672Z,7.37
2018-07-13T13:48:50.860Z,4.60
2018-07-13T13:51:19.060Z,11.73
2018-07-13T13:53:47.316Z,4.37
2018-07-13T13:56:15.476Z,12.57
2018-07-13T13:58:43.669Z,7.23
2018-07-13T14:01:11.867Z,12.13
2018-07-13T14:03:40.047Z,5.97
2018-07-13T14:06:08.240Z,7.67
2018-07-13T14:08:36.448Z,6.80
2018-07-13T14:11:04.658Z,6.40
2018-07-13T14:13:32.852Z,10.03
2018-07-13T14:16:00.864Z,8.43
2018-07-13T14:18:29.092Z,10.70
2018-07-13T14:20:57.030Z,6.00
2018-07-13T14:23:25.239Z,5.17
2018-07-13T14:25:53.155Z,7.63
2018-07-13T14:28:21.493Z,6.17
2018-07-13T14:30:49.630Z,8.73
2018-07-13T14:33:18.217Z,6.17
2018-07-13T14:35:46.448Z,6.30
2018-07-13T14:38:14.621Z,8.60
2018-07-13T14:40:42.783Z,6.60
2018-07-13T14:43:10.967Z,4.10
2018-07-13T14:45:39.163Z,10.87
2018-07-13T14:48:07.350Z,5.60
2018-07-13T14:50:35.543Z,12.40
2018-07-13T14:53:03.717Z,6.23
2018-07-13T14:55:31.888Z,4.50
2018-07-13T14:58:00.089Z,6.00
2018-07-13T15:00:28.387Z,9.87
2018-07-13T15:02:56.544Z,6.20
2018-07-13T15:05:24.939Z,4.67
2018-07-13T15:07:53.389Z,6.40
2018-07-13T15:10:21.342Z,6.63
2018-07-13T15:12:49.536Z,6.00
2018-07-13T15:15:17.860Z,4.97
2018-07-13T15:17:46.884Z,3.47
2018-07-13T15:20:15.040Z,7.43
2018-07-13T15:22:43.220Z,3.83
2018-07-13T15:25:11.403Z,6.47
2018-07-13T15:27:39.642Z,3.90
2018-07-13T15:30:07.808Z,4.30
2018-07-13T15:32:35.993Z,5.37
2018-07-13T15:35:04.247Z,3.80
2018-07-13T15:37:32.429Z,4.60
2018-07-13T15:40:00.616Z,4.03
2018-07-13T15:42:28.923Z,11.27
2018-07-13T15:44:57.128Z,17.90
2018-07-13T15:47:25.309Z,6.70
2018-07-13T15:49:53.494Z,5.30
2018-07-13T15:52:21.693Z,8.80
2018-07-13T15:54:49.888Z,4.30
2018-07-13T15:57:18.072Z,6.00
2018-07-13T15:59:46.020Z,8.80
2018-07-13T16:02:14.217Z,3.57
2018-07-13T16:04:42.411Z,3.33
2018-07-13T16:07:10.604Z,8.77
2018-07-13T16:09:38.804Z,7.77
2018-07-13T16:12:06.993Z,7.30
2018-07-13T16:14:35.171Z,5.30
2018-07-13T16:17:03.350Z,5.27
2018-07-13T16:19:31.507Z,4.13
2018-07-13T16:21:59.677Z,5.17
2018-07-13T16:24:27.901Z,7.10
2018-07-13T16:26:56.076Z,6.90
2018-07-13T16:29:24.252Z,4.03
2018-07-13T16:31:52.449Z,4.57
2018-07-13T16:34:20.615Z,4.20
2018-07-13T16:36:48.811Z,6.60
2018-07-13T16:39:17.005Z,8.30
2018-07-13T16:41:44.964Z,10.03
2018-07-13T16:44:13.159Z,7.63
2018-07-13T16:46:41.336Z,5.40
2018-07-13T16:49:09.259Z,7.33
2018-07-13T16:51:37.451Z,4.10
2018-07-13T16:54:05.716Z,5.57
2018-07-13T16:56:33.935Z,12.70
2018-07-13T16:59:02.099Z,5.70
2018-07-13T17:01:31.175Z,6.87
2018-07-13T17:03:59.365Z,9.13
2018-07-13T17:06:27.559Z,9.03
2018-07-13T17:08:56.076Z,10.80
2018-07-13T17:11:24.271Z,8.10
2018-07-13T17:13:52.508Z,7.50
2018-07-13T17:16:20.687Z,7.10
2018-07-13T17:18:48.894Z,5.50
2018-07-13T17:21:17.103Z,4.60
2018-07-13T17:23:45.060Z,6.10
2018-07-13T17:26:13.278Z,6.80
2018-07-13T17:28:41.393Z,6.03
2018-07-13T17:31:09.583Z,6.20
2018-07-13T17:33:37.748Z,5.00
2018-07-13T17:36:05.929Z,6.07
2018-07-13T17:38:34.129Z,3.27
2018-07-13T17:41:02.313Z,9.10
2018-07-13T17:43:30.511Z,3.10
2018-07-13T17:45:58.778Z,3.10
2018-07-13T17:48:26.949Z,3.67
2018-07-13T17:50:55.139Z,8.73
2018-07-13T17:53:23.324Z,3.97
2018-07-13T17:55:51.511Z,4.83
2018-07-13T17:58:19.703Z,3.37
2018-07-13T18:00:47.975Z,4.00
2018-07-13T18:03:16.141Z,4.20
2018-07-13T18:05:44.311Z,2.50
2018-07-13T18:08:12.496Z,6.20
2018-07-13T18:10:40.443Z,3.90
2018-07-13T18:13:08.737Z,4.53
2018-07-13T18:15:37.169Z,3.93
2018-07-13T18:18:05.348Z,2.50
2018-07-13T18:20:33.619Z,14.37
2018-07-13T18:23:01.870Z,4.33
2018-07-13T18:25:29.976Z,3.80
2018-07-13T18:27:58.191Z,3.43
2018-07-13T18:30:26.124Z,6.27
2018-07-13T18:32:54.387Z,3.40
2018-07-13T18:35:22.603Z,4.33
2018-07-13T18:37:50.587Z,5.20
2018-07-13T18:40:18.788Z,3.73
2018-07-13T18:42:46.983Z,3.73
2018-07-13T18:45:15.172Z,2.97
2018-07-13T18:47:43.350Z,2.70
2018-07-13T18:50:11.533Z,4.60
2018-07-13T18:52:39.733Z,3.37
2018-07-13T18:55:07.722Z,6.67
2018-07-13T18:57:35.920Z,3.70
2018-07-13T19:00:04.532Z,3.70
2018-07-13T19:02:32.732Z,6.30
2018-07-13T19:05:00.892Z,3.63
2018-07-13T19:07:28.907Z,7.20
2018-07-13T19:09:57.096Z,3.37
2018-07-13T19:12:25.252Z,9.20
2018-07-13T19:14:54.576Z,2.80
2018-07-13T19:17:24.880Z,3.53
2018-07-13T19:19:53.974Z,3.40
2018-07-13T19:22:23.802Z,5.30
2018-07-13T19:24:57.109Z,3.73
2018-07-13T19:27:27.415Z,3.60
2018-07-13T19:29:56.456Z,2.70
2018-07-13T19:32:28.711Z,4.23
2018-07-13T19:34:58.949Z,3.67
2018-07-13T19:37:31.097Z,3.93
2018-07-13T19:39:59.698Z,3.67
2018-07-13T19:42:29.234Z,4.80
2018-07-13T19:44:58.381Z,5.63
2018-07-13T19:47:27.652Z,3.07
2018-07-13T19:49:55.855Z,3.30
2018-07-13T19:52:24.047Z,3.73
2018-07-13T19:54:52.660Z,6.30
2018-07-13T19:57:21.434Z,3.93
2018-07-13T19:59:49.568Z,5.60
2018-07-13T20:02:17.772Z,4.90
2018-07-13T20:04:46.022Z,2.80
2018-07-13T20:07:14.208Z,4.43
2018-07-13T20:09:42.195Z,3.07
2018-07-13T20:12:10.417Z,3.87
2018-07-13T20:14:38.602Z,3.10
2018-07-13T20:17:06.800Z,2.93
2018-07-13T20:19:34.971Z,3.07
2018-07-13T20:22:02.959Z,3.63
2018-07-13T20:24:31.896Z,5.50
2018-07-13T20:27:00.081Z,6.53
2018-07-13T20:29:28.384Z,4.40
2018-07-13T20:31:56.324Z,3.13
2018-07-13T20:34:24.554Z,8.23
2018-07-13T20:36:52.834Z,3.17
2018-07-13T20:39:21.122Z,4.87
2018-07-13T20:41:49.283Z,4.83
2018-07-13T20:44:17.537Z,3.50
2018-07-13T20:46:45.752Z,3.13
2018-07-13T20:49:13.944Z,3.47
2018-07-13T20:51:42.187Z,8.30
2018-07-13T20:54:10.468Z,11.00
2018-07-13T20:56:38.607Z,3.83
2018-07-13T20:59:06.838Z,4.83
2018-07-13T21:01:35.076Z,2.90
2018-07-13T21:04:03.295Z,6.10
2018-07-13T21:06:32.472Z,3.10
2018-07-13T21:09:00.716Z,3.50
2018-07-13T21:11:28.916Z,2.80
2018-07-13T21:13:57.380Z,5.77
2018-07-13T21:16:25.592Z,4.70
2018-07-13T21:18:53.849Z,4.60
2018-07-13T21:21:22.063Z,6.23
2018-07-13T21:23:50.030Z,3.37
2018-07-13T21:26:18.248Z,3.23
2018-07-13T21:28:46.466Z,8.30
2018-07-13T21:31:14.651Z,3.17
2018-07-13T21:33:42.915Z,2.97
2018-07-13T21:36:11.148Z,2.77
2018-07-13T21:38:39.337Z,4.17
2018-07-13T21:41:07.536Z,2.97
2018-07-13T21:43:35.804Z,3.40
2018-07-13T21:46:03.971Z,3.63
2018-07-13T21:48:32.245Z,4.60
2018-07-13T21:51:00.454Z,5.47
2018-07-13T21:53:28.637Z,4.53
2018-07-13T21:55:56.812Z,3.00
2018-07-13T21:58:24.748Z,3.13
2018-07-13T22:00:52.935Z,5.00
2018-07-13T22:03:21.168Z,3.13
2018-07-13T22:05:49.361Z,3.07
2018-07-13T22:08:17.564Z,3.03
2018-07-13T22:10:45.768Z,3.90
2018-07-13T22:13:14.002Z,3.10
2018-07-13T22:15:42.155Z,4.40
2018-07-13T22:18:10.353Z,2.97
2018-07-13T22:20:38.585Z,3.30
2018-07-13T22:23:06.741Z,3.67
2018-07-13T22:25:34.939Z,4.87
2018-07-13T22:28:03.135Z,3.37
2018-07-13T22:30:31.334Z,4.13
2018-07-13T22:32:59.580Z,3.47
2018-07-13T22:35:27.760Z,4.23
2018-07-13T22:37:55.947Z,3.50
2018-07-13T22:40:23.908Z,3.50
2018-07-13T22:42:52.088Z,4.03
2018-07-13T22:45:20.277Z,3.20
2018-07-13T22:47:54.567Z,3.77
2018-07-13T22:50:22.767Z,4.30
2018-07-13T22:52:50.723Z,6.00
2018-07-13T22:55:19.692Z,4.37
2018-07-13T22:57:47.868Z,5.50
2018-07-13T23:00:16.080Z,6.83
2018-07-13T23:02:44.282Z,5.10
2018-07-13T23:05:12.475Z,3.73
2018-07-13T23:07:40.688Z,5.00
2018-07-13T23:10:08.647Z,4.50
2018-07-13T23:12:36.820Z,4.83
2018-07-13T23:15:05.064Z,7.13
2018-07-13T23:17:33.243Z,5.20
2018-07-13T23:20:01.471Z,5.43
2018-07-13T23:22:29.669Z,7.23
2018-07-13T23:24:57.904Z,5.30
2018-07-13T23:27:26.079Z,4.17
2018-07-13T23:29:54.020Z,4.47
2018-07-13T23:32:22.208Z,6.33
2018-07-13T23:34:50.371Z,5.30
2018-07-13T23:37:18.565Z,5.47
2018-07-13T23:39:46.731Z,5.13
2018-07-13T23:42:14.908Z,4.53
2018-07-13T23:44:43.084Z,8.87
2018-07-13T23:47:11.259Z,5.43
2018-07-13T23:49:39.215Z,4.77
2018-07-13T23:52:07.430Z,5.67
2018-07-13T23:54:35.620Z,5.77
2018-07-13T23:57:03.796Z,5.10
2018-07-13T23:59:31.978Z,4.90
